Terminal Aerodrome Forecast
Issued by NWS Binghamton, NY

Home | Current Version | Previous Version | Text Only | Print | Product List | Glossary On
Versions: 1 2 3 4 5 6 7 8 9 10 11 12 13 14 15 16 17 18 19
000
FTUS41 KBGM 252300
TAFAVP
TAF
KAVP 252330Z 2600/2624 VRB03KT P6SM BKN200
     FM261500 22006KT P6SM SCT150
     FM261800 23007KT P6SM BKN060=

USA.gov is the U.S. government's official web portal to all federal, state and local government web resources and services.